createdAt,value
2022-08-31T00:00:08.800Z,54.50
2022-08-31T00:02:53.618Z,54.38
2022-08-31T00:05:21.687Z,54.48
2022-08-31T00:07:48.036Z,54.67
2022-08-31T00:10:14.588Z,54.48
2022-08-31T00:12:44.357Z,54.38
2022-08-31T00:15:11.345Z,54.71
2022-08-31T00:17:37.693Z,54.46
2022-08-31T00:20:31.652Z,54.35
2022-08-31T00:22:57.556Z,54.58
2022-08-31T00:25:24.069Z,54.58
2022-08-31T00:27:50.459Z,54.67
2022-08-31T00:30:16.823Z,54.45
2022-08-31T00:32:43.194Z,54.34
2022-08-31T00:35:09.660Z,54.51
2022-08-31T00:37:36.051Z,54.58
2022-08-31T00:40:02.493Z,54.59
2022-08-31T00:42:28.898Z,54.65
2022-08-31T00:44:55.286Z,54.73
2022-08-31T00:47:21.651Z,54.34
2022-08-31T00:49:50.164Z,54.61
2022-08-31T00:52:18.067Z,54.66
2022-08-31T00:54:45.960Z,54.37
2022-08-31T00:57:12.323Z,54.40
2022-08-31T00:59:39.063Z,54.11
2022-08-31T01:02:06.598Z,54.27
2022-08-31T01:04:33.104Z,54.27
2022-08-31T01:06:59.499Z,54.44
2022-08-31T01:09:26.649Z,54.03
2022-08-31T01:11:53.005Z,54.50
2022-08-31T01:14:19.373Z,54.55
2022-08-31T01:16:47.466Z,54.56
2022-08-31T01:19:17.757Z,54.56
2022-08-31T01:21:47.272Z,54.40
2022-08-31T01:24:13.656Z,54.48
2022-08-31T01:26:40.033Z,54.26
2022-08-31T01:29:06.777Z,54.50
2022-08-31T01:31:38.137Z,54.44
2022-08-31T01:34:04.614Z,54.54
2022-08-31T01:36:30.974Z,54.14
2022-08-31T01:38:57.369Z,54.19
2022-08-31T01:41:23.786Z,54.24
2022-08-31T01:43:50.210Z,54.54
2022-08-31T01:46:16.658Z,54.25
2022-08-31T01:48:43.333Z,54.32
2022-08-31T01:51:10.787Z,54.21
2022-08-31T01:53:40.116Z,54.19
2022-08-31T01:56:12.795Z,54.25
2022-08-31T01:58:39.173Z,54.42
2022-08-31T02:01:33.596Z,54.56
2022-08-31T02:04:00.020Z,54.38
2022-08-31T02:06:26.418Z,54.63
2022-08-31T02:08:52.806Z,54.37
2022-08-31T02:11:19.380Z,54.68
2022-08-31T02:13:45.767Z,54.52
2022-08-31T02:16:14.543Z,54.60
2022-08-31T02:18:41.432Z,54.52
2022-08-31T02:21:07.854Z,54.64
2022-08-31T02:23:34.225Z,54.52
2022-08-31T02:26:00.591Z,54.38
2022-08-31T02:28:26.961Z,54.56
2022-08-31T02:30:54.766Z,54.24
2022-08-31T02:33:21.174Z,54.82
2022-08-31T02:35:50.320Z,54.66
2022-08-31T02:38:19.986Z,54.68
2022-08-31T02:40:49.140Z,54.57
2022-08-31T02:43:19.409Z,54.55
2022-08-31T02:45:53.839Z,54.59
2022-08-31T02:48:24.912Z,54.83
2022-08-31T02:50:51.535Z,54.76
2022-08-31T02:53:18.780Z,54.88
2022-08-31T02:55:45.581Z,54.79
2022-08-31T02:58:12.015Z,54.89
2022-08-31T03:00:38.839Z,55.29
2022-08-31T03:03:05.476Z,55.26
2022-08-31T03:05:31.995Z,55.64
2022-08-31T03:07:58.410Z,55.32
2022-08-31T03:10:24.869Z,55.46
2022-08-31T03:12:51.250Z,55.51
2022-08-31T03:15:17.891Z,55.77
2022-08-31T03:17:45.443Z,55.66
2022-08-31T03:20:11.885Z,55.97
2022-08-31T03:22:38.257Z,55.71
2022-08-31T03:25:05.042Z,55.55
2022-08-31T03:27:31.598Z,55.68
2022-08-31T03:29:57.983Z,55.61
2022-08-31T03:32:27.486Z,55.42
2022-08-31T03:34:55.647Z,55.45
2022-08-31T03:37:22.031Z,55.24
2022-08-31T03:39:49.313Z,55.59
2022-08-31T03:42:16.477Z,55.35
2022-08-31T03:44:42.857Z,55.59
2022-08-31T03:47:17.651Z,55.29
2022-08-31T03:49:44.458Z,55.29
2022-08-31T03:52:21.653Z,55.51
2022-08-31T03:54:55.950Z,55.25
2022-08-31T03:57:22.779Z,55.16
2022-08-31T03:59:52.103Z,55.35
2022-08-31T04:02:18.536Z,55.38
2022-08-31T04:05:08.234Z,55.28
2022-08-31T04:07:53.314Z,55.38
2022-08-31T04:10:42.369Z,55.33
2022-08-31T04:13:30.211Z,55.14
2022-08-31T04:16:35.713Z,55.33
2022-08-31T04:19:20.990Z,55.06
2022-08-31T04:21:57.219Z,55.10
2022-08-31T04:24:24.017Z,55.10
2022-08-31T04:26:50.897Z,55.12
2022-08-31T04:29:17.364Z,55.13
2022-08-31T04:31:44.533Z,55.39
2022-08-31T04:34:11.615Z,55.16
2022-08-31T04:36:37.975Z,55.13
2022-08-31T04:39:04.391Z,55.05
2022-08-31T04:41:31.374Z,54.87
2022-08-31T04:43:58.368Z,54.98
2022-08-31T04:46:25.479Z,55.01
2022-08-31T04:48:53.018Z,55.06
2022-08-31T04:51:20.357Z,54.98
2022-08-31T04:53:46.725Z,55.31
2022-08-31T04:56:14.561Z,55.06
2022-08-31T04:58:42.624Z,55.34
2022-08-31T05:01:09.679Z,55.09
2022-08-31T05:03:56.309Z,55.27
2022-08-31T05:06:27.087Z,55.34
2022-08-31T05:08:54.382Z,54.96
2022-08-31T05:11:24.865Z,55.09
2022-08-31T05:13:52.639Z,55.40
2022-08-31T05:16:19.612Z,55.36
2022-08-31T05:18:46.853Z,55.00
2022-08-31T05:21:16.835Z,55.91
2022-08-31T05:23:43.329Z,55.76
2022-08-31T05:26:10.182Z,55.48
2022-08-31T05:28:36.852Z,55.42
2022-08-31T05:31:03.439Z,55.38
2022-08-31T05:33:35.206Z,55.74
2022-08-31T05:36:02.282Z,55.35
2022-08-31T05:38:28.765Z,55.30
2022-08-31T05:40:55.430Z,55.55
2022-08-31T05:43:22.590Z,55.48
2022-08-31T05:45:49.025Z,55.42
2022-08-31T05:48:15.499Z,55.11
2022-08-31T05:50:41.891Z,55.17
2022-08-31T05:53:08.287Z,54.98
2022-08-31T05:55:34.662Z,55.58
2022-08-31T05:58:01.147Z,55.63
2022-08-31T06:00:27.514Z,56.57
2022-08-31T06:03:09.310Z,56.69
2022-08-31T06:05:35.870Z,56.59
2022-08-31T06:08:02.501Z,56.25
2022-08-31T06:10:32.315Z,56.20
2022-08-31T06:12:58.792Z,56.61
2022-08-31T06:15:25.187Z,57.51
2022-08-31T06:17:51.596Z,61.63
2022-08-31T06:20:18.365Z,58.18
2022-08-31T06:22:46.478Z,58.98
2022-08-31T06:25:19.266Z,58.59
2022-08-31T06:27:49.082Z,58.02
2022-08-31T06:30:19.596Z,57.28
2022-08-31T06:32:46.521Z,57.23
2022-08-31T06:35:13.038Z,57.60
2022-08-31T06:38:05.248Z,57.17
2022-08-31T06:40:47.995Z,56.99
2022-08-31T06:43:44.198Z,56.57
2022-08-31T06:46:48.923Z,57.24
2022-08-31T06:49:19.487Z,56.76
2022-08-31T06:51:45.905Z,56.25
2022-08-31T06:54:29.848Z,56.29
2022-08-31T06:57:15.366Z,56.48
2022-08-31T07:00:00.121Z,56.81
2022-08-31T07:02:34.731Z,57.37
2022-08-31T07:05:01.126Z,57.97
2022-08-31T07:07:27.504Z,57.59
2022-08-31T07:09:53.935Z,57.12
2022-08-31T07:12:20.386Z,56.52
2022-08-31T07:14:50.158Z,57.42
2022-08-31T07:17:21.929Z,55.75
2022-08-31T07:19:48.455Z,54.85
2022-08-31T07:22:16.297Z,55.40
2022-08-31T07:24:45.238Z,56.03
2022-08-31T07:27:12.987Z,55.98
2022-08-31T07:29:45.115Z,55.88
2022-08-31T07:32:13.886Z,55.55
2022-08-31T07:34:41.069Z,55.41
2022-08-31T07:37:44.134Z,55.12
2022-08-31T07:40:30.553Z,55.27
2022-08-31T07:42:57.009Z,55.36
2022-08-31T07:45:25.841Z,55.51
2022-08-31T07:47:56.486Z,55.66
2022-08-31T07:50:27.315Z,55.89
2022-08-31T07:53:00.281Z,55.74
2022-08-31T07:55:45.701Z,55.82
2022-08-31T07:58:31.719Z,56.04
2022-08-31T08:01:02.998Z,56.20
2022-08-31T08:03:30.012Z,56.21
2022-08-31T08:06:16.829Z,56.39
2022-08-31T08:09:24.672Z,55.98
2022-08-31T08:12:01.075Z,55.80
2022-08-31T08:14:39.757Z,55.45
2022-08-31T08:17:38.150Z,55.66
2022-08-31T08:20:13.356Z,54.95
2022-08-31T08:22:54.147Z,55.23
2022-08-31T08:25:30.913Z,54.93
2022-08-31T08:28:38.254Z,53.52
2022-08-31T08:31:05.015Z,52.58
2022-08-31T08:33:31.752Z,52.48
2022-08-31T08:36:00.730Z,52.51
2022-08-31T08:38:30.779Z,52.61
2022-08-31T08:40:59.435Z,52.93
2022-08-31T08:43:33.013Z,52.83
2022-08-31T08:46:10.691Z,53.27
2022-08-31T08:48:47.007Z,53.10
2022-08-31T08:51:25.058Z,53.26
2022-08-31T08:53:58.569Z,52.97
2022-08-31T08:56:33.687Z,52.91
2022-08-31T08:59:02.137Z,53.07
2022-08-31T09:01:36.034Z,52.94
2022-08-31T09:04:06.955Z,53.15
2022-08-31T09:07:18.816Z,52.77
2022-08-31T09:09:47.184Z,52.69
2022-08-31T09:12:33.806Z,53.19
2022-08-31T09:15:07.113Z,53.20
2022-08-31T09:17:54.928Z,53.16
2022-08-31T09:20:27.221Z,52.98
2022-08-31T09:22:55.999Z,52.84
2022-08-31T09:25:32.663Z,52.71
2022-08-31T09:28:07.366Z,52.60
2022-08-31T09:30:35.743Z,53.10
2022-08-31T09:33:02.100Z,52.82
2022-08-31T09:35:40.206Z,53.09
2022-08-31T09:38:11.188Z,52.87
2022-08-31T09:40:39.069Z,52.84
2022-08-31T09:43:13.084Z,53.04
2022-08-31T09:45:50.711Z,53.23
2022-08-31T09:48:17.087Z,52.83
2022-08-31T09:50:47.018Z,52.99
2022-08-31T09:53:36.763Z,53.03
2022-08-31T09:56:05.835Z,53.39
2022-08-31T09:58:34.365Z,53.17
2022-08-31T10:01:12.695Z,52.99
2022-08-31T10:03:44.114Z,52.63
2022-08-31T10:06:43.999Z,52.59
2022-08-31T10:09:19.810Z,52.73
2022-08-31T10:11:47.551Z,52.55
2022-08-31T10:14:33.419Z,52.58
2022-08-31T10:17:10.757Z,52.90
2022-08-31T10:19:42.247Z,53.24
2022-08-31T10:22:18.225Z,53.46
2022-08-31T10:24:46.255Z,53.14
2022-08-31T10:27:13.138Z,53.60
2022-08-31T10:29:49.243Z,53.44
2022-08-31T10:32:24.566Z,53.59
2022-08-31T10:35:05.634Z,53.02
2022-08-31T10:37:36.621Z,53.18
2022-08-31T10:40:23.284Z,53.29
2022-08-31T10:43:00.445Z,53.22
2022-08-31T10:45:27.363Z,53.59
2022-08-31T10:47:54.232Z,53.20
2022-08-31T10:50:26.178Z,53.11
2022-08-31T10:53:00.592Z,53.10
2022-08-31T10:55:37.380Z,52.89
2022-08-31T10:58:22.811Z,53.29
2022-08-31T11:00:51.765Z,53.05
2022-08-31T11:03:22.513Z,53.31
2022-08-31T11:05:54.030Z,53.33
2022-08-31T11:08:29.700Z,53.29
2022-08-31T11:10:56.166Z,53.09
2022-08-31T11:13:36.182Z,53.34
2022-08-31T11:16:05.802Z,52.97
2022-08-31T11:18:41.077Z,53.02
2022-08-31T11:21:13.411Z,53.56
2022-08-31T11:23:54.502Z,53.29
2022-08-31T11:26:30.876Z,53.08
2022-08-31T11:29:09.987Z,53.22
2022-08-31T11:31:36.359Z,51.72
2022-08-31T11:34:16.160Z,52.60
2022-08-31T11:36:42.905Z,50.69
2022-08-31T11:39:09.171Z,49.94
2022-08-31T11:41:48.839Z,50.23
2022-08-31T11:44:30.558Z,49.22
2022-08-31T11:47:09.192Z,49.72
2022-08-31T11:49:39.926Z,50.61
2022-08-31T11:52:10.221Z,49.71
2022-08-31T11:54:42.722Z,50.89
2022-08-31T11:57:09.930Z,50.99
2022-08-31T11:59:37.507Z,51.24
2022-08-31T12:02:19.182Z,49.73
2022-08-31T12:04:48.323Z,50.32
2022-08-31T12:07:33.384Z,50.46
2022-08-31T12:10:14.751Z,49.88
2022-08-31T12:12:50.742Z,49.72
2022-08-31T12:15:28.533Z,48.37
2022-08-31T12:17:57.549Z,47.84
2022-08-31T12:21:01.660Z,47.74
2022-08-31T12:23:37.496Z,47.29
2022-08-31T12:26:15.349Z,47.60
2022-08-31T12:28:44.777Z,47.26
2022-08-31T12:31:12.681Z,46.67
2022-08-31T12:33:40.303Z,47.66
2022-08-31T12:36:13.867Z,46.45
2022-08-31T12:38:40.347Z,47.46
2022-08-31T12:41:06.977Z,47.23
2022-08-31T12:43:43.858Z,46.82
2022-08-31T12:46:29.359Z,46.35
2022-08-31T12:49:05.406Z,47.57
2022-08-31T12:51:50.561Z,48.35
2022-08-31T12:54:19.847Z,48.40
2022-08-31T12:56:58.592Z,48.66
2022-08-31T12:59:56.962Z,48.76
2022-08-31T13:02:20.487Z,49.08
2022-08-31T13:04:47.343Z,49.44
2022-08-31T13:07:20.171Z,49.62
2022-08-31T13:09:46.611Z,50.03
2022-08-31T13:12:21.347Z,49.80
2022-08-31T13:14:47.725Z,50.07
2022-08-31T13:17:18.086Z,50.08
2022-08-31T13:19:45.768Z,50.52
2022-08-31T13:22:16.893Z,50.41
2022-08-31T13:24:46.044Z,50.28
2022-08-31T13:27:20.205Z,50.00
2022-08-31T13:29:46.812Z,49.48
2022-08-31T13:32:33.445Z,49.22
2022-08-31T13:35:02.828Z,48.83
2022-08-31T13:37:31.314Z,49.60
2022-08-31T13:39:57.923Z,49.80
2022-08-31T13:42:36.563Z,49.78
2022-08-31T13:45:04.074Z,49.54
2022-08-31T13:47:31.957Z,49.73
2022-08-31T13:50:12.800Z,50.67
2022-08-31T13:52:40.102Z,50.97
2022-08-31T13:55:10.729Z,50.59
2022-08-31T13:57:38.183Z,50.30
2022-08-31T14:00:23.199Z,50.73
2022-08-31T14:02:49.661Z,50.16
2022-08-31T14:05:32.637Z,50.78
2022-08-31T14:08:02.219Z,50.84
2022-08-31T14:10:31.857Z,51.18
2022-08-31T14:13:02.646Z,50.56
2022-08-31T14:15:37.684Z,49.19
2022-08-31T14:18:25.741Z,48.61
2022-08-31T14:21:20.485Z,50.37
2022-08-31T14:23:54.380Z,50.59
2022-08-31T14:26:22.935Z,50.79
2022-08-31T14:28:50.263Z,50.79
2022-08-31T14:31:22.312Z,51.35
2022-08-31T14:33:50.246Z,51.49
2022-08-31T14:36:17.310Z,51.10
2022-08-31T14:38:44.724Z,51.13
2022-08-31T14:41:11.791Z,51.52
2022-08-31T14:43:39.154Z,51.66
2022-08-31T14:46:06.156Z,51.56
2022-08-31T14:48:35.095Z,51.33
2022-08-31T14:51:06.452Z,51.41
2022-08-31T14:53:37.611Z,51.56
2022-08-31T14:56:04.946Z,52.00
2022-08-31T14:58:32.042Z,51.80
2022-08-31T15:01:00.187Z,52.06
2022-08-31T15:03:33.987Z,52.29
2022-08-31T15:06:03.800Z,52.29
2022-08-31T15:08:38.139Z,52.26
2022-08-31T15:11:06.067Z,52.47
2022-08-31T15:13:33.970Z,52.03
2022-08-31T15:16:03.064Z,52.22
2022-08-31T15:18:33.634Z,51.87
2022-08-31T15:21:02.069Z,52.37
2022-08-31T15:23:29.553Z,52.64
2022-08-31T15:26:06.502Z,52.22
2022-08-31T15:28:33.469Z,52.45
2022-08-31T15:31:00.178Z,52.32
2022-08-31T15:33:26.926Z,52.38
2022-08-31T15:36:01.782Z,52.20
2022-08-31T15:38:28.148Z,52.46
2022-08-31T15:40:54.583Z,53.28
2022-08-31T15:43:20.988Z,50.28
2022-08-31T15:45:49.797Z,49.96
2022-08-31T15:48:34.813Z,49.76
2022-08-31T15:51:01.364Z,49.74
2022-08-31T15:53:30.400Z,49.49
2022-08-31T15:56:06.749Z,48.99
2022-08-31T15:58:33.733Z,48.78
2022-08-31T16:01:00.446Z,49.01
2022-08-31T16:03:32.085Z,49.10
2022-08-31T16:06:01.032Z,48.67
2022-08-31T16:08:27.929Z,48.82
2022-08-31T16:10:54.966Z,47.91
2022-08-31T16:13:21.447Z,48.33
2022-08-31T16:15:51.313Z,49.17
2022-08-31T16:18:18.518Z,50.07
2022-08-31T16:20:48.011Z,47.34
2022-08-31T16:23:14.515Z,48.15
2022-08-31T16:25:48.212Z,49.53
2022-08-31T16:28:16.211Z,49.96
2022-08-31T16:30:45.053Z,49.94
2022-08-31T16:33:12.147Z,50.05
2022-08-31T16:35:38.725Z,50.42
2022-08-31T16:38:05.895Z,50.63
2022-08-31T16:40:32.370Z,50.59
2022-08-31T16:42:58.821Z,50.99
2022-08-31T16:45:25.301Z,50.65
2022-08-31T16:48:11.772Z,51.09
2022-08-31T16:50:43.762Z,50.87
2022-08-31T16:53:10.182Z,50.98
2022-08-31T16:55:42.102Z,51.15
2022-08-31T16:58:08.719Z,51.26
2022-08-31T17:00:38.079Z,51.26
2022-08-31T17:03:04.730Z,51.60
2022-08-31T17:05:32.326Z,51.57
2022-08-31T17:07:58.927Z,51.37
2022-08-31T17:10:25.501Z,51.53
2022-08-31T17:12:52.431Z,51.83
2022-08-31T17:15:20.873Z,51.97
2022-08-31T17:17:48.167Z,51.84
2022-08-31T17:20:16.609Z,51.66
2022-08-31T17:22:47.261Z,51.60
2022-08-31T17:25:13.990Z,51.76
2022-08-31T17:27:40.486Z,52.10
2022-08-31T17:30:07.838Z,52.02
2022-08-31T17:32:36.520Z,52.20
2022-08-31T17:35:07.592Z,51.73
2022-08-31T17:37:36.390Z,51.93
2022-08-31T17:40:03.978Z,52.03
2022-08-31T17:42:30.722Z,52.19
2022-08-31T17:44:58.019Z,52.12
2022-08-31T17:47:25.007Z,51.68
2022-08-31T17:49:52.425Z,51.81
2022-08-31T17:52:20.621Z,51.74
2022-08-31T17:54:47.315Z,52.36
2022-08-31T17:57:14.001Z,52.30
2022-08-31T17:59:41.649Z,52.17
2022-08-31T18:02:09.693Z,52.04
2022-08-31T18:04:36.218Z,52.27
2022-08-31T18:07:02.709Z,52.26
2022-08-31T18:09:29.691Z,52.25
2022-08-31T18:11:56.150Z,52.50
2022-08-31T18:14:23.683Z,52.42
2022-08-31T18:16:50.725Z,52.61
2022-08-31T18:19:25.494Z,52.31
2022-08-31T18:21:55.468Z,51.03
2022-08-31T18:24:21.895Z,50.21
2022-08-31T18:26:48.508Z,49.53
2022-08-31T18:29:19.622Z,49.35
2022-08-31T18:31:49.971Z,49.39
2022-08-31T18:34:18.010Z,49.24
2022-08-31T18:36:45.558Z,49.39
2022-08-31T18:39:12.751Z,50.45
2022-08-31T18:41:57.930Z,50.69
2022-08-31T18:44:43.091Z,50.35
2022-08-31T18:47:10.259Z,51.08
2022-08-31T18:49:40.129Z,50.86
2022-08-31T18:52:06.819Z,51.11
2022-08-31T18:54:33.242Z,51.27
2022-08-31T18:57:00.624Z,51.30
2022-08-31T18:59:27.030Z,51.19
2022-08-31T19:01:53.506Z,51.49
2022-08-31T19:04:22.046Z,51.61
2022-08-31T19:06:48.645Z,51.69
2022-08-31T19:09:15.051Z,51.67
2022-08-31T19:11:51.333Z,52.09
2022-08-31T19:14:19.687Z,52.04
2022-08-31T19:16:46.935Z,52.09
2022-08-31T19:19:20.166Z,52.17
2022-08-31T19:21:46.618Z,52.25
2022-08-31T19:24:13.389Z,52.38
2022-08-31T19:26:40.730Z,52.08
2022-08-31T19:29:08.841Z,52.42
2022-08-31T19:31:36.159Z,52.46
2022-08-31T19:34:02.875Z,52.67
2022-08-31T19:36:32.082Z,52.29
2022-08-31T19:39:00.255Z,52.41
2022-08-31T19:41:26.818Z,52.85
2022-08-31T19:44:03.155Z,52.73
2022-08-31T19:46:34.010Z,52.97
2022-08-31T19:49:00.469Z,52.76
2022-08-31T19:51:27.313Z,52.97
2022-08-31T19:53:55.105Z,52.64
2022-08-31T19:56:24.499Z,52.89
2022-08-31T19:58:51.681Z,52.70
2022-08-31T20:01:19.556Z,52.68
2022-08-31T20:03:47.779Z,53.04
2022-08-31T20:06:15.128Z,54.04
2022-08-31T20:08:42.449Z,54.01
2022-08-31T20:11:09.387Z,53.24
2022-08-31T20:13:36.133Z,53.63
2022-08-31T20:16:04.656Z,53.62
2022-08-31T20:18:32.217Z,52.92
2022-08-31T20:21:00.983Z,53.15
2022-08-31T20:23:30.136Z,53.14
2022-08-31T20:25:56.826Z,53.35
2022-08-31T20:28:26.358Z,54.19
2022-08-31T20:30:55.234Z,53.78
2022-08-31T20:33:22.077Z,53.52
2022-08-31T20:35:48.574Z,53.53
2022-08-31T20:38:15.436Z,53.59
2022-08-31T20:40:42.200Z,53.76
2022-08-31T20:43:10.694Z,53.56
2022-08-31T20:45:37.664Z,53.98
2022-08-31T20:48:24.725Z,53.78
2022-08-31T20:50:51.179Z,53.93
2022-08-31T20:53:25.001Z,53.78
2022-08-31T20:56:06.904Z,53.73
2022-08-31T20:58:33.272Z,54.09
2022-08-31T21:01:02.999Z,53.96
2022-08-31T21:03:29.416Z,53.93
2022-08-31T21:05:55.802Z,54.05
2022-08-31T21:08:22.684Z,53.81
2022-08-31T21:10:49.050Z,54.04
2022-08-31T21:13:16.498Z,53.86
2022-08-31T21:15:43.840Z,53.95
2022-08-31T21:18:10.435Z,53.67
2022-08-31T21:20:37.473Z,53.66
2022-08-31T21:23:03.831Z,53.79
2022-08-31T21:25:30.790Z,54.04
2022-08-31T21:27:57.147Z,54.01
2022-08-31T21:30:23.591Z,53.91
2022-08-31T21:32:50.041Z,54.14
2022-08-31T21:35:16.393Z,54.27
2022-08-31T21:37:43.510Z,54.28
2022-08-31T21:40:10.364Z,54.33
2022-08-31T21:42:36.767Z,54.31
2022-08-31T21:45:03.125Z,54.30
2022-08-31T21:47:29.786Z,54.69
2022-08-31T21:49:56.136Z,54.36
2022-08-31T21:52:22.501Z,54.24
2022-08-31T21:54:48.860Z,54.67
2022-08-31T21:57:16.066Z,54.43
2022-08-31T21:59:42.426Z,54.43
2022-08-31T22:02:11.098Z,54.59
2022-08-31T22:04:38.814Z,54.79
2022-08-31T22:07:07.755Z,54.50
2022-08-31T22:09:34.865Z,54.14
2022-08-31T22:12:07.269Z,54.18
2022-08-31T22:14:36.076Z,54.54
2022-08-31T22:17:06.209Z,54.32
2022-08-31T22:19:36.708Z,54.51
2022-08-31T22:22:03.815Z,54.51
2022-08-31T22:24:31.507Z,54.52
2022-08-31T22:27:01.375Z,54.77
2022-08-31T22:29:28.741Z,54.97
2022-08-31T22:31:56.236Z,54.93
2022-08-31T22:34:22.622Z,54.60
2022-08-31T22:36:50.430Z,55.05
2022-08-31T22:39:17.196Z,54.74
2022-08-31T22:41:43.552Z,54.90
2022-08-31T22:44:12.331Z,55.10
2022-08-31T22:46:38.918Z,54.94
2022-08-31T22:49:06.072Z,55.00
2022-08-31T22:51:33.043Z,55.12
2022-08-31T22:53:59.518Z,55.10
2022-08-31T22:56:27.014Z,55.39
2022-08-31T22:58:54.179Z,55.30
2022-08-31T23:01:23.145Z,55.42
2022-08-31T23:03:51.141Z,55.32
2022-08-31T23:06:20.082Z,55.16
2022-08-31T23:08:47.145Z,55.19
2022-08-31T23:11:15.182Z,55.21
2022-08-31T23:13:57.374Z,55.41
2022-08-31T23:16:27.551Z,55.13
2022-08-31T23:18:55.427Z,55.18
2022-08-31T23:21:21.818Z,55.29
2022-08-31T23:23:48.410Z,55.03
2022-08-31T23:26:14.811Z,55.03
2022-08-31T23:28:41.170Z,55.21
2022-08-31T23:31:07.643Z,55.12
2022-08-31T23:33:34.560Z,55.44
2022-08-31T23:36:00.958Z,55.04
2022-08-31T23:38:27.354Z,55.35
2022-08-31T23:40:56.204Z,55.06
2022-08-31T23:43:29.960Z,55.16
2022-08-31T23:46:00.161Z,55.09
2022-08-31T23:48:26.565Z,55.09
2022-08-31T23:50:54.443Z,55.07
2022-08-31T23:53:21.144Z,55.28
2022-08-31T23:55:47.559Z,55.03
2022-08-31T23:58:14.078Z,55.33
